sensor_id;sensor_type;location;lat;lon;timestamp;P1;durP1;ratioP1;P2;durP2;ratioP2
73283;SDS011;61519;60.050;18.582;2023-02-02T00:00:25;3.38;;;1.10;;
73283;SDS011;61519;60.050;18.582;2023-02-02T00:03:23;3.40;;;0.80;;
73283;SDS011;61519;60.050;18.582;2023-02-02T00:06:21;2.00;;;0.60;;
73283;SDS011;61519;60.050;18.582;2023-02-02T00:12:22;1.33;;;0.60;;
73283;SDS011;61519;60.050;18.582;2023-02-02T00:31:19;1.63;;;0.80;;
73283;SDS011;61519;60.050;18.582;2023-02-02T01:05:55;1.45;;;0.50;;
73283;SDS011;61519;60.050;18.582;2023-02-02T01:39:43;1.85;;;0.60;;
73283;SDS011;61519;60.050;18.582;2023-02-02T01:47:09;2.00;;;0.77;;
73283;SDS011;61519;60.050;18.582;2023-02-02T01:50:07;1.65;;;0.75;;
73283;SDS011;61519;60.050;18.582;2023-02-02T02:03:14;1.55;;;0.63;;
73283;SDS011;61519;60.050;18.582;2023-02-02T02:09:37;1.90;;;0.70;;
73283;SDS011;61519;60.050;18.582;2023-02-02T02:12:40;1.65;;;0.70;;
73283;SDS011;61519;60.050;18.582;2023-02-02T02:50:28;2.03;;;1.13;;
73283;SDS011;61519;60.050;18.582;2023-02-02T02:56:24;1.90;;;0.80;;
73283;SDS011;61519;60.050;18.582;2023-02-02T03:09:49;2.17;;;0.88;;
73283;SDS011;61519;60.050;18.582;2023-02-02T03:12:56;3.60;;;0.87;;
73283;SDS011;61519;60.050;18.582;2023-02-02T03:19:54;2.45;;;1.05;;
73283;SDS011;61519;60.050;18.582;2023-02-02T03:25:56;1.70;;;0.70;;
73283;SDS011;61519;60.050;18.582;2023-02-02T03:43:17;1.63;;;0.75;;
73283;SDS011;61519;60.050;18.582;2023-02-02T03:52:59;1.70;;;0.90;;
73283;SDS011;61519;60.050;18.582;2023-02-02T04:10:21;1.70;;;0.70;;
73283;SDS011;61519;60.050;18.582;2023-02-02T04:27:38;2.42;;;1.13;;
73283;SDS011;61519;60.050;18.582;2023-02-02T04:45:12;1.90;;;0.80;;
73283;SDS011;61519;60.050;18.582;2023-02-02T04:48:14;1.83;;;0.80;;
73283;SDS011;61519;60.050;18.582;2023-02-02T05:11:44;2.10;;;1.10;;
73283;SDS011;61519;60.050;18.582;2023-02-02T05:58:19;5.63;;;1.10;;
73283;SDS011;61519;60.050;18.582;2023-02-02T06:08:45;2.72;;;1.10;;
73283;SDS011;61519;60.050;18.582;2023-02-02T06:15:40;3.85;;;1.60;;
73283;SDS011;61519;60.050;18.582;2023-02-02T06:18:46;3.00;;;1.30;;
73283;SDS011;61519;60.050;18.582;2023-02-02T06:28:49;2.80;;;1.13;;
73283;SDS011;61519;60.050;18.582;2023-02-02T06:35:36;6.75;;;2.70;;
73283;SDS011;61519;60.050;18.582;2023-02-02T06:44:49;2.63;;;1.20;;
73283;SDS011;61519;60.050;18.582;2023-02-02T06:47:50;3.35;;;1.35;;
73283;SDS011;61519;60.050;18.582;2023-02-02T06:57:29;13.80;;;4.93;;
73283;SDS011;61519;60.050;18.582;2023-02-02T07:00:40;5.15;;;2.08;;
73283;SDS011;61519;60.050;18.582;2023-02-02T07:10:58;1.83;;;0.85;;
73283;SDS011;61519;60.050;18.582;2023-02-02T07:13:57;2.72;;;0.93;;
73283;SDS011;61519;60.050;18.582;2023-02-02T07:16:34;2.15;;;1.10;;
73283;SDS011;61519;60.050;18.582;2023-02-02T07:19:25;1.80;;;0.90;;
73283;SDS011;61519;60.050;18.582;2023-02-02T07:25:28;3.60;;;1.13;;
73283;SDS011;61519;60.050;18.582;2023-02-02T07:28:00;3.45;;;0.88;;
73283;SDS011;61519;60.050;18.582;2023-02-02T07:30:25;3.38;;;0.77;;
73283;SDS011;61519;60.050;18.582;2023-02-02T07:33:43;2.33;;;0.80;;
73283;SDS011;61519;60.050;18.582;2023-02-02T07:36:09;2.88;;;1.30;;
73283;SDS011;61519;60.050;18.582;2023-02-02T07:38:44;1.80;;;0.70;;
73283;SDS011;61519;60.050;18.582;2023-02-02T07:41:32;2.37;;;0.90;;
73283;SDS011;61519;60.050;18.582;2023-02-02T07:44:52;2.47;;;0.77;;
73283;SDS011;61519;60.050;18.582;2023-02-02T07:47:24;2.78;;;0.90;;
73283;SDS011;61519;60.050;18.582;2023-02-02T07:49:55;2.08;;;0.80;;
73283;SDS011;61519;60.050;18.582;2023-02-02T07:53:11;1.60;;;0.70;;
73283;SDS011;61519;60.050;18.582;2023-02-02T07:59:32;2.00;;;0.88;;
73283;SDS011;61519;60.050;18.582;2023-02-02T08:02:35;3.05;;;0.90;;
73283;SDS011;61519;60.050;18.582;2023-02-02T08:06:19;3.00;;;0.75;;
73283;SDS011;61519;60.050;18.582;2023-02-02T08:08:50;3.42;;;1.08;;
73283;SDS011;61519;60.050;18.582;2023-02-02T08:11:25;2.95;;;0.70;;
73283;SDS011;61519;60.050;18.582;2023-02-02T08:17:46;2.13;;;0.75;;
73283;SDS011;61519;60.050;18.582;2023-02-02T08:20:24;1.92;;;0.70;;
73283;SDS011;61519;60.050;18.582;2023-02-02T08:23:01;4.60;;;1.30;;
73283;SDS011;61519;60.050;18.582;2023-02-02T08:25:36;3.72;;;1.20;;
73283;SDS011;61519;60.050;18.582;2023-02-02T08:28:04;1.97;;;0.60;;
73283;SDS011;61519;60.050;18.582;2023-02-02T08:30:30;3.05;;;1.20;;
73283;SDS011;61519;60.050;18.582;2023-02-02T08:33:14;4.00;;;0.73;;
73283;SDS011;61519;60.050;18.582;2023-02-02T08:36:12;2.07;;;0.77;;
73283;SDS011;61519;60.050;18.582;2023-02-02T08:39:18;2.72;;;0.75;;
73283;SDS011;61519;60.050;18.582;2023-02-02T08:44:38;2.47;;;1.10;;
73283;SDS011;61519;60.050;18.582;2023-02-02T08:47:29;1.98;;;0.98;;
73283;SDS011;61519;60.050;18.582;2023-02-02T08:50:19;2.67;;;0.88;;
73283;SDS011;61519;60.050;18.582;2023-02-02T08:53:08;1.75;;;0.73;;
73283;SDS011;61519;60.050;18.582;2023-02-02T09:07:48;1.95;;;0.65;;
73283;SDS011;61519;60.050;18.582;2023-02-02T09:10:36;3.15;;;0.88;;
73283;SDS011;61519;60.050;18.582;2023-02-02T09:13:16;2.17;;;0.93;;
73283;SDS011;61519;60.050;18.582;2023-02-02T09:15:42;3.15;;;1.00;;
73283;SDS011;61519;60.050;18.582;2023-02-02T09:22:01;5.57;;;0.98;;
73283;SDS011;61519;60.050;18.582;2023-02-02T09:24:56;2.60;;;0.80;;
73283;SDS011;61519;60.050;18.582;2023-02-02T09:27:25;2.72;;;0.88;;
73283;SDS011;61519;60.050;18.582;2023-02-02T09:29:53;3.83;;;1.40;;
73283;SDS011;61519;60.050;18.582;2023-02-02T09:38:33;3.03;;;1.10;;
73283;SDS011;61519;60.050;18.582;2023-02-02T09:54:36;3.63;;;1.50;;
73283;SDS011;61519;60.050;18.582;2023-02-02T10:00:50;2.53;;;0.90;;
73283;SDS011;61519;60.050;18.582;2023-02-02T10:09:28;4.23;;;0.90;;
73283;SDS011;61519;60.050;18.582;2023-02-02T10:17:47;2.63;;;1.00;;
73283;SDS011;61519;60.050;18.582;2023-02-02T10:23:52;2.50;;;1.00;;
73283;SDS011;61519;60.050;18.582;2023-02-02T10:26:51;5.00;;;1.35;;
73283;SDS011;61519;60.050;18.582;2023-02-02T10:32:26;3.47;;;1.17;;
73283;SDS011;61519;60.050;18.582;2023-02-02T10:39:31;4.83;;;1.10;;
73283;SDS011;61519;60.050;18.582;2023-02-02T10:42:22;2.17;;;0.98;;
73283;SDS011;61519;60.050;18.582;2023-02-02T10:48:22;1.70;;;0.80;;
73283;SDS011;61519;60.050;18.582;2023-02-02T10:51:37;4.15;;;2.17;;
73283;SDS011;61519;60.050;18.582;2023-02-02T10:54:07;3.47;;;1.45;;
73283;SDS011;61519;60.050;18.582;2023-02-02T10:57:03;3.92;;;1.88;;
73283;SDS011;61519;60.050;18.582;2023-02-02T10:59:43;2.33;;;0.90;;
73283;SDS011;61519;60.050;18.582;2023-02-02T11:02:17;3.13;;;0.80;;
73283;SDS011;61519;60.050;18.582;2023-02-02T11:04:57;4.03;;;2.00;;
73283;SDS011;61519;60.050;18.582;2023-02-02T11:11:09;3.38;;;1.00;;
73283;SDS011;61519;60.050;18.582;2023-02-02T11:14:21;12.23;;;5.45;;
73283;SDS011;61519;60.050;18.582;2023-02-02T11:20:31;3.67;;;1.10;;
73283;SDS011;61519;60.050;18.582;2023-02-02T11:30:27;1.92;;;0.90;;
73283;SDS011;61519;60.050;18.582;2023-02-02T11:32:25;4.17;;;1.00;;
73283;SDS011;61519;60.050;18.582;2023-02-02T11:43:54;3.45;;;1.40;;
73283;SDS011;61519;60.050;18.582;2023-02-02T11:46:30;5.90;;;2.03;;
73283;SDS011;61519;60.050;18.582;2023-02-02T11:49:10;5.07;;;1.00;;
73283;SDS011;61519;60.050;18.582;2023-02-02T11:51:43;2.00;;;0.80;;
73283;SDS011;61519;60.050;18.582;2023-02-02T12:01:07;9.40;;;2.55;;
73283;SDS011;61519;60.050;18.582;2023-02-02T12:04:03;2.90;;;1.10;;
73283;SDS011;61519;60.050;18.582;2023-02-02T12:10:19;5.50;;;1.90;;
73283;SDS011;61519;60.050;18.582;2023-02-02T12:16:21;3.17;;;1.60;;
73283;SDS011;61519;60.050;18.582;2023-02-02T12:18:59;3.00;;;1.27;;
73283;SDS011;61519;60.050;18.582;2023-02-02T12:27:29;3.78;;;1.20;;
73283;SDS011;61519;60.050;18.582;2023-02-02T12:31:08;3.70;;;1.35;;
73283;SDS011;61519;60.050;18.582;2023-02-02T12:43:38;18.35;;;7.10;;
73283;SDS011;61519;60.050;18.582;2023-02-02T13:01:59;3.72;;;1.92;;
73283;SDS011;61519;60.050;18.582;2023-02-02T13:11:16;3.00;;;1.23;;
73283;SDS011;61519;60.050;18.582;2023-02-02T13:14:07;2.75;;;0.75;;
73283;SDS011;61519;60.050;18.582;2023-02-02T13:17:42;3.38;;;1.50;;
73283;SDS011;61519;60.050;18.582;2023-02-02T13:20:04;12.93;;;2.80;;
73283;SDS011;61519;60.050;18.582;2023-02-02T13:24:22;3.92;;;1.27;;
73283;SDS011;61519;60.050;18.582;2023-02-02T13:26:42;3.05;;;0.98;;
73283;SDS011;61519;60.050;18.582;2023-02-02T13:29:25;7.40;;;4.07;;
73283;SDS011;61519;60.050;18.582;2023-02-02T13:34:46;8.05;;;4.93;;
73283;SDS011;61519;60.050;18.582;2023-02-02T13:37:46;3.47;;;1.60;;
73283;SDS011;61519;60.050;18.582;2023-02-02T13:40:31;4.00;;;1.55;;
73283;SDS011;61519;60.050;18.582;2023-02-02T13:43:31;2.15;;;0.90;;
73283;SDS011;61519;60.050;18.582;2023-02-02T13:46:05;2.13;;;0.90;;
73283;SDS011;61519;60.050;18.582;2023-02-02T13:52:07;2.08;;;0.80;;
73283;SDS011;61519;60.050;18.582;2023-02-02T14:01:09;1.80;;;0.80;;
73283;SDS011;61519;60.050;18.582;2023-02-02T14:03:59;1.88;;;0.77;;
73283;SDS011;61519;60.050;18.582;2023-02-02T14:06:58;2.50;;;0.80;;
73283;SDS011;61519;60.050;18.582;2023-02-02T14:09:41;2.50;;;1.00;;
73283;SDS011;61519;60.050;18.582;2023-02-02T14:15:35;2.13;;;0.75;;
73283;SDS011;61519;60.050;18.582;2023-02-02T14:44:04;3.13;;;1.10;;
73283;SDS011;61519;60.050;18.582;2023-02-02T14:46:39;4.63;;;1.55;;
73283;SDS011;61519;60.050;18.582;2023-02-02T14:49:13;3.30;;;1.75;;
73283;SDS011;61519;60.050;18.582;2023-02-02T14:52:01;3.50;;;1.60;;
73283;SDS011;61519;60.050;18.582;2023-02-02T14:54:46;6.40;;;2.42;;
73283;SDS011;61519;60.050;18.582;2023-02-02T14:57:29;8.00;;;5.28;;
73283;SDS011;61519;60.050;18.582;2023-02-02T15:00:25;6.05;;;3.53;;
73283;SDS011;61519;60.050;18.582;2023-02-02T15:15:54;12.48;;;1.88;;
73283;SDS011;61519;60.050;18.582;2023-02-02T15:18:26;5.63;;;1.27;;
73283;SDS011;61519;60.050;18.582;2023-02-02T15:31:13;17.77;;;10.18;;
73283;SDS011;61519;60.050;18.582;2023-02-02T15:33:47;15.13;;;8.68;;
73283;SDS011;61519;60.050;18.582;2023-02-02T15:36:41;14.20;;;7.25;;
73283;SDS011;61519;60.050;18.582;2023-02-02T15:39:46;17.33;;;6.38;;
73283;SDS011;61519;60.050;18.582;2023-02-02T15:42:41;8.87;;;4.70;;
73283;SDS011;61519;60.050;18.582;2023-02-02T15:52:00;7.53;;;1.20;;
73283;SDS011;61519;60.050;18.582;2023-02-02T15:55:11;9.00;;;1.80;;
73283;SDS011;61519;60.050;18.582;2023-02-02T16:02:17;4.25;;;1.70;;
73283;SDS011;61519;60.050;18.582;2023-02-02T16:05:21;3.38;;;1.65;;
73283;SDS011;61519;60.050;18.582;2023-02-02T16:07:59;6.93;;;2.50;;
73283;SDS011;61519;60.050;18.582;2023-02-02T16:14:05;5.60;;;3.80;;
73283;SDS011;61519;60.050;18.582;2023-02-02T16:20:16;4.63;;;2.50;;
73283;SDS011;61519;60.050;18.582;2023-02-02T16:26:30;7.47;;;1.80;;
73283;SDS011;61519;60.050;18.582;2023-02-02T16:29:12;3.67;;;1.92;;
73283;SDS011;61519;60.050;18.582;2023-02-02T16:38:45;4.63;;;1.50;;
73283;SDS011;61519;60.050;18.582;2023-02-02T16:54:27;2.40;;;1.10;;
73283;SDS011;61519;60.050;18.582;2023-02-02T17:01:20;4.03;;;1.27;;
73283;SDS011;61519;60.050;18.582;2023-02-02T17:14:23;46.30;;;4.95;;
73283;SDS011;61519;60.050;18.582;2023-02-02T17:17:12;12.50;;;2.70;;
73283;SDS011;61519;60.050;18.582;2023-02-02T17:23:40;11.20;;;1.75;;
73283;SDS011;61519;60.050;18.582;2023-02-02T17:33:23;3.67;;;1.50;;
73283;SDS011;61519;60.050;18.582;2023-02-02T17:36:13;10.88;;;1.70;;
73283;SDS011;61519;60.050;18.582;2023-02-02T17:42:24;8.02;;;2.30;;
73283;SDS011;61519;60.050;18.582;2023-02-02T17:44:50;5.05;;;1.70;;
73283;SDS011;61519;60.050;18.582;2023-02-02T17:47:16;7.40;;;1.53;;
73283;SDS011;61519;60.050;18.582;2023-02-02T17:49:41;2.90;;;1.40;;
73283;SDS011;61519;60.050;18.582;2023-02-02T17:52:08;4.77;;;2.37;;
73283;SDS011;61519;60.050;18.582;2023-02-02T17:54:34;5.03;;;2.15;;
73283;SDS011;61519;60.050;18.582;2023-02-02T17:56:59;6.33;;;2.30;;
73283;SDS011;61519;60.050;18.582;2023-02-02T17:59:24;7.27;;;2.40;;
73283;SDS011;61519;60.050;18.582;2023-02-02T18:01:50;4.87;;;2.17;;
73283;SDS011;61519;60.050;18.582;2023-02-02T18:04:16;3.45;;;1.65;;
73283;SDS011;61519;60.050;18.582;2023-02-02T18:06:41;5.27;;;2.80;;
73283;SDS011;61519;60.050;18.582;2023-02-02T18:09:07;5.60;;;1.67;;
73283;SDS011;61519;60.050;18.582;2023-02-02T18:11:33;4.20;;;2.25;;
73283;SDS011;61519;60.050;18.582;2023-02-02T18:13:58;6.30;;;2.43;;
73283;SDS011;61519;60.050;18.582;2023-02-02T18:16:24;4.37;;;2.23;;
73283;SDS011;61519;60.050;18.582;2023-02-02T18:18:49;6.87;;;1.73;;
73283;SDS011;61519;60.050;18.582;2023-02-02T18:21:14;4.67;;;2.10;;
73283;SDS011;61519;60.050;18.582;2023-02-02T18:23:40;6.00;;;2.80;;
73283;SDS011;61519;60.050;18.582;2023-02-02T18:26:09;5.57;;;2.60;;
73283;SDS011;61519;60.050;18.582;2023-02-02T18:28:35;4.25;;;2.30;;
73283;SDS011;61519;60.050;18.582;2023-02-02T18:31:05;5.97;;;1.98;;
73283;SDS011;61519;60.050;18.582;2023-02-02T18:33:32;6.17;;;2.20;;
73283;SDS011;61519;60.050;18.582;2023-02-02T18:35:57;8.97;;;3.87;;
73283;SDS011;61519;60.050;18.582;2023-02-02T18:38:22;7.47;;;2.67;;
73283;SDS011;61519;60.050;18.582;2023-02-02T18:40:57;4.30;;;2.50;;
73283;SDS011;61519;60.050;18.582;2023-02-02T18:43:22;2.93;;;1.50;;
73283;SDS011;61519;60.050;18.582;2023-02-02T18:46:01;4.03;;;2.37;;
73283;SDS011;61519;60.050;18.582;2023-02-02T18:48:28;5.30;;;2.38;;
73283;SDS011;61519;60.050;18.582;2023-02-02T18:50:55;4.63;;;2.15;;
73283;SDS011;61519;60.050;18.582;2023-02-02T18:53:20;4.87;;;2.63;;
73283;SDS011;61519;60.050;18.582;2023-02-02T18:55:45;4.07;;;1.90;;
73283;SDS011;61519;60.050;18.582;2023-02-02T18:58:11;3.40;;;1.90;;
73283;SDS011;61519;60.050;18.582;2023-02-02T19:00:38;3.50;;;1.70;;
73283;SDS011;61519;60.050;18.582;2023-02-02T19:03:04;6.47;;;2.53;;
73283;SDS011;61519;60.050;18.582;2023-02-02T19:05:30;4.60;;;1.93;;
73283;SDS011;61519;60.050;18.582;2023-02-02T19:08:14;4.10;;;2.00;;
73283;SDS011;61519;60.050;18.582;2023-02-02T19:10:39;4.40;;;2.03;;
73283;SDS011;61519;60.050;18.582;2023-02-02T20:44:03;4.38;;;2.15;;
73283;SDS011;61519;60.050;18.582;2023-02-02T20:46:28;3.97;;;1.97;;
73283;SDS011;61519;60.050;18.582;2023-02-02T20:48:53;4.27;;;2.40;;
73283;SDS011;61519;60.050;18.582;2023-02-02T20:51:19;6.13;;;2.23;;
73283;SDS011;61519;60.050;18.582;2023-02-02T20:53:44;3.80;;;1.93;;
73283;SDS011;61519;60.050;18.582;2023-02-02T20:56:09;4.60;;;2.40;;
73283;SDS011;61519;60.050;18.582;2023-02-02T20:58:36;3.67;;;2.23;;
73283;SDS011;61519;60.050;18.582;2023-02-02T21:01:01;5.23;;;2.53;;
73283;SDS011;61519;60.050;18.582;2023-02-02T21:03:29;5.50;;;2.38;;
73283;SDS011;61519;60.050;18.582;2023-02-02T21:05:55;4.90;;;2.40;;
73283;SDS011;61519;60.050;18.582;2023-02-02T21:08:20;5.30;;;3.20;;
73283;SDS011;61519;60.050;18.582;2023-02-02T21:10:45;4.97;;;2.90;;
73283;SDS011;61519;60.050;18.582;2023-02-02T21:13:11;4.63;;;2.63;;
73283;SDS011;61519;60.050;18.582;2023-02-02T21:15:36;5.67;;;3.33;;
73283;SDS011;61519;60.050;18.582;2023-02-02T21:18:01;5.47;;;2.73;;
73283;SDS011;61519;60.050;18.582;2023-02-02T21:20:27;4.73;;;2.73;;
73283;SDS011;61519;60.050;18.582;2023-02-02T21:22:52;5.90;;;3.88;;
73283;SDS011;61519;60.050;18.582;2023-02-02T21:25:20;6.72;;;3.58;;
73283;SDS011;61519;60.050;18.582;2023-02-02T21:27:45;6.75;;;3.28;;
73283;SDS011;61519;60.050;18.582;2023-02-02T21:30:11;6.13;;;2.97;;
73283;SDS011;61519;60.050;18.582;2023-02-02T21:32:37;5.80;;;2.53;;
73283;SDS011;61519;60.050;18.582;2023-02-02T21:35:03;4.73;;;2.50;;
73283;SDS011;61519;60.050;18.582;2023-02-02T21:37:30;5.85;;;3.03;;
73283;SDS011;61519;60.050;18.582;2023-02-02T21:39:58;6.85;;;3.70;;
73283;SDS011;61519;60.050;18.582;2023-02-02T21:42:23;5.67;;;3.10;;
73283;SDS011;61519;60.050;18.582;2023-02-02T21:44:52;10.57;;;2.85;;
73283;SDS011;61519;60.050;18.582;2023-02-02T21:47:28;11.48;;;3.08;;
73283;SDS011;61519;60.050;18.582;2023-02-02T21:50:00;4.45;;;2.20;;
73283;SDS011;61519;60.050;18.582;2023-02-02T21:52:46;7.03;;;3.10;;
73283;SDS011;61519;60.050;18.582;2023-02-02T21:57:53;10.98;;;4.43;;
73283;SDS011;61519;60.050;18.582;2023-02-02T22:00:22;12.40;;;5.77;;
73283;SDS011;61519;60.050;18.582;2023-02-02T22:02:55;9.07;;;4.80;;
73283;SDS011;61519;60.050;18.582;2023-02-02T22:05:26;7.13;;;4.80;;
73283;SDS011;61519;60.050;18.582;2023-02-02T22:07:55;9.27;;;4.90;;
73283;SDS011;61519;60.050;18.582;2023-02-02T22:10:23;13.00;;;4.22;;
73283;SDS011;61519;60.050;18.582;2023-02-02T22:15:42;9.53;;;3.27;;
73283;SDS011;61519;60.050;18.582;2023-02-02T22:18:12;6.20;;;2.45;;
73283;SDS011;61519;60.050;18.582;2023-02-02T22:20:41;7.55;;;3.53;;
73283;SDS011;61519;60.050;18.582;2023-02-02T22:23:10;8.38;;;2.85;;
73283;SDS011;61519;60.050;18.582;2023-02-02T22:25:38;6.78;;;3.10;;
73283;SDS011;61519;60.050;18.582;2023-02-02T22:28:20;5.93;;;3.33;;
73283;SDS011;61519;60.050;18.582;2023-02-02T22:30:47;7.25;;;3.22;;
73283;SDS011;61519;60.050;18.582;2023-02-02T22:33:13;5.88;;;2.65;;
73283;SDS011;61519;60.050;18.582;2023-02-02T22:35:39;4.27;;;2.63;;
73283;SDS011;61519;60.050;18.582;2023-02-02T22:38:05;6.35;;;3.05;;
73283;SDS011;61519;60.050;18.582;2023-02-02T22:40:31;10.13;;;3.70;;
73283;SDS011;61519;60.050;18.582;2023-02-02T22:43:01;6.57;;;3.40;;
73283;SDS011;61519;60.050;18.582;2023-02-02T22:45:27;9.05;;;4.43;;
73283;SDS011;61519;60.050;18.582;2023-02-02T22:47:53;9.07;;;4.47;;
73283;SDS011;61519;60.050;18.582;2023-02-02T22:50:19;14.87;;;6.13;;
73283;SDS011;61519;60.050;18.582;2023-02-02T22:52:46;11.75;;;5.95;;
73283;SDS011;61519;60.050;18.582;2023-02-02T22:55:11;14.83;;;8.70;;
73283;SDS011;61519;60.050;18.582;2023-02-02T22:57:37;8.63;;;4.13;;
73283;SDS011;61519;60.050;18.582;2023-02-02T23:00:04;7.03;;;3.67;;
73283;SDS011;61519;60.050;18.582;2023-02-02T23:02:29;6.38;;;2.97;;
73283;SDS011;61519;60.050;18.582;2023-02-02T23:04:55;6.07;;;3.33;;
73283;SDS011;61519;60.050;18.582;2023-02-02T23:07:20;5.60;;;2.80;;
73283;SDS011;61519;60.050;18.582;2023-02-02T23:09:45;5.13;;;2.70;;
73283;SDS011;61519;60.050;18.582;2023-02-02T23:12:11;6.40;;;2.70;;
73283;SDS011;61519;60.050;18.582;2023-02-02T23:14:37;4.88;;;2.50;;
73283;SDS011;61519;60.050;18.582;2023-02-02T23:17:02;4.83;;;2.53;;
73283;SDS011;61519;60.050;18.582;2023-02-02T23:19:27;6.17;;;3.03;;
73283;SDS011;61519;60.050;18.582;2023-02-02T23:21:53;7.23;;;3.27;;
73283;SDS011;61519;60.050;18.582;2023-02-02T23:24:18;3.93;;;2.33;;
73283;SDS011;61519;60.050;18.582;2023-02-02T23:26:44;4.30;;;2.57;;
73283;SDS011;61519;60.050;18.582;2023-02-02T23:29:09;8.23;;;3.00;;
73283;SDS011;61519;60.050;18.582;2023-02-02T23:31:34;6.93;;;2.23;;
73283;SDS011;61519;60.050;18.582;2023-02-02T23:33:59;4.03;;;2.77;;
73283;SDS011;61519;60.050;18.582;2023-02-02T23:36:25;6.30;;;2.60;;
73283;SDS011;61519;60.050;18.582;2023-02-02T23:38:50;5.53;;;3.37;;
73283;SDS011;61519;60.050;18.582;2023-02-02T23:41:15;5.77;;;2.97;;
73283;SDS011;61519;60.050;18.582;2023-02-02T23:43:42;4.78;;;2.70;;
73283;SDS011;61519;60.050;18.582;2023-02-02T23:46:08;4.67;;;2.43;;
73283;SDS011;61519;60.050;18.582;2023-02-02T23:48:34;6.70;;;2.58;;
73283;SDS011;61519;60.050;18.582;2023-02-02T23:51:00;6.05;;;2.85;;
73283;SDS011;61519;60.050;18.582;2023-02-02T23:53:26;5.97;;;2.37;;
73283;SDS011;61519;60.050;18.582;2023-02-02T23:55:51;4.05;;;2.53;;
73283;SDS011;61519;60.050;18.582;2023-02-02T23:58:17;4.70;;;2.87;;
